Time;durP1;ratioP1;P1;durP2;ratioP2;P2;SDS_P1;SDS_P2;PMS_P1;PMS_P2;Temp;Humidity;BMP_temperature;BMP_pressure;BME280_temperature;BME280_humidity;BME280_pressure;Samples;Min_cycle;Max_cycle;Signal;HPM_P1;HPM_P2
2021/03/28 00:00:24;;;;;;;6.05;1.77;;;7.00;90.00;;;;;;5030455;28;20040;-72
2021/03/28 00:02:52;;;;;;;5.38;1.77;;;6.90;90.60;;;;;;5032613;28;20040;-72
2021/03/28 00:05:27;;;;;;;6.00;1.45;;;6.80;90.70;;;;;;5035633;28;20018;-72
2021/03/28 00:08:24;;;;;;;4.40;1.50;;;6.70;91.00;;;;;;5036474;28;20045;-72
2021/03/28 00:10:53;;;;;;;4.40;1.60;;;6.70;90.70;;;;;;5018366;28;20033;-72
2021/03/28 00:13:29;;;;;;;4.47;1.67;;;6.60;91.10;;;;;;5034491;28;20028;-72
2021/03/28 00:15:55;;;;;;;4.35;1.55;;;6.50;91.10;;;;;;5033651;28;20044;-73
2021/03/28 00:19:00;;;;;;;4.38;1.40;;;6.50;91.50;;;;;;5033850;28;20029;-73
2021/03/28 00:21:49;;;;;;;4.68;1.70;;;6.50;92.00;;;;;;5033604;28;20123;-73
2021/03/28 00:24:28;;;;;;;4.82;1.60;;;6.40;92.50;;;;;;5022679;28;20040;-73
2021/03/28 00:27:12;;;;;;;3.67;1.42;;;6.30;93.20;;;;;;5033430;28;20029;-73
2021/03/28 00:29:52;;;;;;;3.30;1.33;;;6.20;94.20;;;;;;5033144;28;20540;-72
2021/03/28 00:32:59;;;;;;;4.60;2.25;;;6.10;95.90;;;;;;5051105;28;20048;-72
2021/03/28 00:35:31;;;;;;;5.97;2.00;;;6.00;97.80;;;;;;5032576;28;20479;-72
2021/03/28 00:38:23;;;;;;;5.20;1.50;;;5.90;99.30;;;;;;5032934;28;20035;-72
2021/03/28 00:41:17;;;;;;;3.88;1.65;;;5.70;99.90;;;;;;5033048;28;20414;-73
2021/03/28 00:44:06;;;;;;;3.45;1.75;;;5.60;99.90;;;;;;5032733;28;20032;-72
2021/03/28 00:46:46;;;;;;;3.50;1.50;;;5.60;99.90;;;;;;5032821;28;20052;-73
2021/03/28 00:49:26;;;;;;;3.05;1.33;;;5.50;99.90;;;;;;5032855;28;20025;-73
2021/03/28 00:52:00;;;;;;;4.40;1.35;;;5.50;99.90;;;;;;5032630;28;20028;-72
2021/03/28 00:54:47;;;;;;;3.35;1.20;;;5.40;99.90;;;;;;5032368;28;20050;-72
2021/03/28 00:57:19;;;;;;;5.78;1.75;;;5.40;99.90;;;;;;5032285;28;20436;-72
2021/03/28 00:59:53;;;;;;;3.93;1.50;;;5.40;99.90;;;;;;5033485;28;20414;-73
2021/03/28 01:02:32;;;;;;;8.23;1.88;;;5.40;99.90;;;;;;5032875;28;20063;-73
2021/03/28 01:05:00;;;;;;;4.13;1.80;;;5.50;99.90;;;;;;5033092;28;20052;-72
2021/03/28 01:07:32;;;;;;;4.47;1.60;;;5.50;99.90;;;;;;5032783;28;20445;-72
2021/03/28 01:10:35;;;;;;;8.52;2.00;;;5.60;99.90;;;;;;5033199;28;20366;-72
2021/03/28 01:13:40;;;;;;;5.13;2.13;;;5.70;99.90;;;;;;5015721;28;20045;-72
2021/03/28 01:16:15;;;;;;;7.18;1.80;;;5.80;99.90;;;;;;5003717;28;20036;-72
2021/03/28 01:18:59;;;;;;;6.10;2.15;;;5.80;99.90;;;;;;5032694;28;20087;-72
2021/03/28 01:21:25;;;;;;;5.25;2.42;;;5.80;99.90;;;;;;5031912;28;20398;-72
2021/03/28 01:24:15;;;;;;;5.15;2.33;;;5.90;99.90;;;;;;5032049;28;20025;-72
2021/03/28 01:26:59;;;;;;;5.82;2.38;;;5.90;99.90;;;;;;5032132;28;20017;-72
2021/03/28 01:29:31;;;;;;;4.05;2.00;;;6.00;99.90;;;;;;5032223;28;20046;-72
2021/03/28 01:32:03;;;;;;;6.60;2.85;;;6.00;99.90;;;;;;5032451;28;20413;-73
2021/03/28 01:34:35;;;;;;;4.43;2.50;;;6.00;99.90;;;;;;5032338;28;20112;-73
2021/03/28 01:37:12;;;;;;;4.22;1.90;;;6.00;99.90;;;;;;5032159;28;20029;-72
2021/03/28 01:39:44;;;;;;;5.65;2.70;;;6.00;99.90;;;;;;5050198;28;20032;-73
2021/03/28 01:42:27;;;;;;;5.07;2.30;;;6.10;99.90;;;;;;5031944;28;20029;-72
2021/03/28 01:45:00;;;;;;;5.28;2.47;;;6.10;99.90;;;;;;5049842;28;20505;-72
2021/03/28 01:47:59;;;;;;;6.25;2.35;;;6.00;99.90;;;;;;5049772;28;20114;-72
2021/03/28 01:50:24;;;;;;;4.45;2.30;;;6.00;99.90;;;;;;5049651;28;20510;-72
2021/03/28 01:53:02;;;;;;;4.22;2.45;;;6.00;99.90;;;;;;5031749;28;20064;-72
2021/03/28 01:55:51;;;;;;;5.53;2.50;;;6.00;99.90;;;;;;5049457;28;20021;-72
2021/03/28 01:58:43;;;;;;;7.78;3.28;;;6.00;99.90;;;;;;5032184;28;20024;-72
2021/03/28 02:01:26;;;;;;;9.90;3.03;;;6.00;99.90;;;;;;5053847;28;20055;-72
2021/03/28 02:04:17;;;;;;;7.63;3.45;;;6.00;99.90;;;;;;5053772;28;20024;-72
2021/03/28 02:06:47;;;;;;;4.55;2.55;;;6.00;99.90;;;;;;5053783;28;20108;-72
2021/03/28 02:09:31;;;;;;;5.03;2.28;;;6.00;99.90;;;;;;5053850;28;20033;-72
2021/03/28 02:12:06;;;;;;;4.43;2.45;;;6.00;99.90;;;;;;5053609;28;20147;-72
2021/03/28 02:14:41;;;;;;;6.78;2.63;;;6.00;99.90;;;;;;5053336;28;20036;-72
2021/03/28 02:17:25;;;;;;;6.57;2.70;;;6.00;99.90;;;;;;5053381;28;20029;-72
2021/03/28 02:20:03;;;;;;;4.43;2.40;;;6.00;99.90;;;;;;5035540;28;20037;-72
2021/03/28 02:22:40;;;;;;;5.60;2.58;;;6.00;99.90;;;;;;5035475;28;20052;-72
2021/03/28 02:25:20;;;;;;;5.00;2.40;;;5.90;99.90;;;;;;5053098;28;20032;-71
2021/03/28 02:28:08;;;;;;;4.95;2.60;;;5.90;99.90;;;;;;5053249;28;20211;-72
2021/03/28 02:30:43;;;;;;;4.82;2.63;;;5.90;99.90;;;;;;5053369;28;20029;-72
2021/03/28 02:33:35;;;;;;;7.65;2.58;;;5.90;99.90;;;;;;5052977;28;20082;-72
2021/03/28 02:36:21;;;;;;;7.63;2.58;;;5.90;99.90;;;;;;5012187;28;20041;-72
2021/03/28 02:39:14;;;;;;;4.55;2.28;;;5.90;99.90;;;;;;5053036;28;20044;-72
2021/03/28 02:41:54;;;;;;;4.97;2.78;;;5.80;99.90;;;;;;5035603;28;20517;-72
2021/03/28 02:44:46;;;;;;;6.13;2.60;;;5.80;99.90;;;;;;5053155;28;20120;-73
2021/03/28 02:47:53;;;;;;;5.10;2.43;;;5.80;99.90;;;;;;5052748;28;20051;-72
2021/03/28 02:50:34;;;;;;;7.45;2.40;;;5.80;99.90;;;;;;5052942;28;20021;-72
2021/03/28 02:53:22;;;;;;;5.00;2.05;;;5.80;99.90;;;;;;5052917;28;20017;-72
2021/03/28 02:56:00;;;;;;;5.03;2.47;;;5.80;99.90;;;;;;5035005;28;20379;-72
2021/03/28 02:59:01;;;;;;;5.32;2.20;;;5.80;99.90;;;;;;5034921;28;20038;-72
2021/03/28 03:01:50;;;;;;;6.97;2.92;;;5.80;99.90;;;;;;4981398;28;20031;-73
2021/03/28 03:04:50;;;;;;;4.05;2.50;;;5.80;99.90;;;;;;5034858;28;20025;-72
2021/03/28 03:07:46;;;;;;;8.60;3.38;;;5.80;99.90;;;;;;5031578;28;20402;-72
2021/03/28 03:10:17;;;;;;;5.85;2.63;;;5.80;99.90;;;;;;5034307;28;20426;-72
2021/03/28 03:13:01;;;;;;;6.28;2.63;;;5.80;99.90;;;;;;5052843;28;20032;-72
2021/03/28 03:15:42;;;;;;;5.03;2.30;;;5.70;99.90;;;;;;5052595;28;20035;-72
2021/03/28 03:18:28;;;;;;;6.70;2.58;;;5.70;99.90;;;;;;5034733;28;20390;-72
2021/03/28 03:21:34;;;;;;;3.47;2.20;;;5.70;99.90;;;;;;5034555;28;20024;-72
2021/03/28 03:24:06;;;;;;;5.82;2.20;;;5.70;99.90;;;;;;5034614;28;20043;-72
2021/03/28 03:26:51;;;;;;;5.82;2.60;;;5.60;99.90;;;;;;5052309;28;20021;-72
2021/03/28 03:29:26;;;;;;;5.95;2.65;;;5.60;99.90;;;;;;5033409;28;20029;-72
2021/03/28 03:32:29;;;;;;;7.47;2.40;;;5.60;99.90;;;;;;5034158;28;20075;-72
2021/03/28 03:35:26;;;;;;;5.60;2.70;;;5.60;99.90;;;;;;5034066;28;20464;-72
2021/03/28 03:38:17;;;;;;;4.30;2.50;;;5.60;99.90;;;;;;5034061;28;20032;-72
2021/03/28 03:41:05;;;;;;;4.85;2.88;;;5.50;99.90;;;;;;5033958;28;20028;-72
2021/03/28 03:43:57;;;;;;;3.92;2.45;;;5.50;99.90;;;;;;5051787;28;20036;-72
2021/03/28 03:46:41;;;;;;;5.03;2.10;;;5.50;99.90;;;;;;5051763;28;20013;-72
2021/03/28 03:49:30;;;;;;;8.35;2.50;;;5.50;99.90;;;;;;5033977;28;20029;-71
2021/03/28 03:52:26;;;;;;;4.95;2.45;;;5.40;99.90;;;;;;4995480;28;20029;-72
2021/03/28 03:55:01;;;;;;;4.43;2.50;;;5.40;99.90;;;;;;5033940;28;20032;-73
2021/03/28 03:57:52;;;;;;;4.88;2.35;;;5.40;99.90;;;;;;5034203;28;20431;-71
2021/03/28 04:00:28;;;;;;;4.53;2.15;;;5.30;99.90;;;;;;5033815;28;20025;-72
2021/03/28 04:03:08;;;;;;;5.70;3.00;;;5.30;99.90;;;;;;5051531;28;20082;-72
2021/03/28 04:05:54;;;;;;;5.55;2.15;;;5.30;99.90;;;;;;5051484;28;20065;-72
2021/03/28 04:08:40;;;;;;;3.90;2.30;;;5.30;99.90;;;;;;5051465;28;20025;-72
2021/03/28 04:11:24;;;;;;;6.25;2.85;;;5.20;99.90;;;;;;5033430;28;20021;-72
2021/03/28 04:14:13;;;;;;;4.75;2.60;;;5.20;99.90;;;;;;5051447;28;20025;-72
2021/03/28 04:17:07;;;;;;;4.30;2.08;;;5.20;99.90;;;;;;5033384;28;20040;-72
2021/03/28 04:19:38;;;;;;;;;;;5.10;99.90;;;;;;5051306;28;20084;-72
2021/03/28 04:22:26;;;;;;;5.80;2.75;;;5.10;99.90;;;;;;5050443;28;19904;-72
2021/03/28 04:25:09;;;;;;;5.53;2.28;;;5.10;99.90;;;;;;5050824;28;20442;-72
2021/03/28 04:27:47;;;;;;;3.92;2.63;;;5.00;99.90;;;;;;5050736;28;20027;-72
2021/03/28 04:30:30;;;;;;;3.58;2.20;;;5.00;99.90;;;;;;5050671;28;20025;-72
2021/03/28 04:33:20;;;;;;;5.22;2.50;;;4.90;99.90;;;;;;5032910;28;20029;-72
2021/03/28 04:36:11;;;;;;;6.60;2.80;;;4.90;99.90;;;;;;5032831;28;20021;-72
2021/03/28 04:38:52;;;;;;;5.72;2.70;;;4.80;99.90;;;;;;5050572;28;20017;-72
2021/03/28 04:41:34;;;;;;;7.32;2.55;;;4.70;99.90;;;;;;5050759;28;20158;-72
2021/03/28 04:44:17;;;;;;;3.43;2.40;;;4.60;99.90;;;;;;5051076;28;20039;-72
2021/03/28 04:47:12;;;;;;;4.50;3.00;;;4.40;99.90;;;;;;5032599;28;20027;-72
2021/03/28 04:49:58;;;;;;;9.88;2.95;;;4.30;99.90;;;;;;5032458;28;20118;-72
2021/03/28 04:53:01;;;;;;;9.43;4.45;;;4.20;99.90;;;;;;5050281;28;20087;-72
2021/03/28 04:56:13;;;;;;;6.72;2.92;;;4.10;99.90;;;;;;4969642;28;20102;-71
2021/03/28 04:58:38;;;;;;;7.53;3.20;;;4.00;99.90;;;;;;5051348;28;20013;-72
2021/03/28 05:01:25;;;;;;;6.15;3.03;;;3.80;99.90;;;;;;5032289;28;20143;-72
2021/03/28 05:04:21;;;;;;;6.97;3.50;;;3.80;99.90;;;;;;5032151;28;20035;-72
2021/03/28 05:06:55;;;;;;;6.90;2.55;;;3.70;99.90;;;;;;5050445;28;20024;-72
2021/03/28 05:09:54;;;;;;;5.75;2.60;;;3.60;99.90;;;;;;5032689;28;20087;-72
2021/03/28 05:12:41;;;;;;;7.43;3.10;;;3.60;99.90;;;;;;5031968;28;20026;-72
2021/03/28 05:15:25;;;;;;;5.65;2.95;;;3.50;99.90;;;;;;5079616;23;20040;-72
2021/03/28 05:17:53;;;;;;;6.78;2.90;;;3.50;99.90;;;;;;5088766;28;20055;-72
2021/03/28 05:20:31;;;;;;;6.47;3.45;;;3.40;99.90;;;;;;5088603;28;20047;-72
2021/03/28 05:23:11;;;;;;;7.13;2.78;;;3.40;99.90;;;;;;5088938;28;20421;-73
2021/03/28 05:26:13;;;;;;;8.40;2.92;;;3.40;99.90;;;;;;5088725;28;20389;-73
2021/03/28 05:29:12;;;;;;;4.40;2.70;;;3.40;99.90;;;;;;5088547;28;20081;-72
2021/03/28 05:32:15;;;;;;;6.38;2.70;;;3.40;99.90;;;;;;5089803;28;20393;-72
2021/03/28 05:35:03;;;;;;;5.32;2.75;;;3.40;99.90;;;;;;5088920;28;20023;-72
2021/03/28 05:37:59;;;;;;;6.38;2.80;;;3.40;99.90;;;;;;5089659;28;20062;-72
2021/03/28 05:40:40;;;;;;;5.60;3.22;;;3.40;99.90;;;;;;5088327;28;20116;-72
2021/03/28 05:43:06;;;;;;;5.53;2.70;;;3.50;99.90;;;;;;5089543;28;20027;-70
2021/03/28 05:45:52;;;;;;;7.05;2.95;;;3.60;99.90;;;;;;5088173;28;20012;-72
2021/03/28 05:48:42;;;;;;;6.97;3.22;;;3.80;99.90;;;;;;5089590;28;20028;-73
2021/03/28 05:51:44;;;;;;;5.97;3.08;;;3.90;99.90;;;;;;5088237;28;20026;-72
2021/03/28 05:54:45;;;;;;;6.50;3.20;;;4.20;99.90;;;;;;5089478;28;20089;-72
2021/03/28 05:57:47;;;;;;;5.78;3.05;;;4.30;99.90;;;;;;5089688;28;20099;-73
2021/03/28 06:00:33;;;;;;;6.35;2.50;;;4.60;99.90;;;;;;5089946;28;20073;-73
2021/03/28 06:03:19;;;;;;;5.05;2.60;;;4.80;99.90;;;;;;5088119;28;20036;-73
2021/03/28 06:06:10;;;;;;;4.45;2.00;;;5.00;99.90;;;;;;5088007;28;20119;-73
2021/03/28 06:09:05;;;;;;;4.50;2.42;;;5.20;99.90;;;;;;5089292;28;20017;-73
2021/03/28 06:11:47;;;;;;;6.88;2.85;;;5.40;99.90;;;;;;5089264;28;20100;-73
2021/03/28 06:14:39;;;;;;;5.05;2.75;;;5.50;99.90;;;;;;5089570;28;20024;-73
2021/03/28 06:17:23;;;;;;;6.03;2.50;;;5.70;99.90;;;;;;5088036;28;20035;-73
2021/03/28 06:20:09;;;;;;;6.95;3.03;;;6.00;99.90;;;;;;5089614;28;20078;-73
2021/03/28 06:23:05;;;;;;;4.88;2.70;;;6.20;99.90;;;;;;5089498;28;20106;-71
2021/03/28 06:26:11;;;;;;;7.57;3.88;;;6.40;99.90;;;;;;5089328;28;20031;-73
2021/03/28 06:29:01;;;;;;;8.82;3.42;;;6.70;99.90;;;;;;5087899;28;20030;-73
2021/03/28 06:32:14;;;;;;;5.70;3.20;;;6.90;99.90;;;;;;5089213;28;20028;-73
2021/03/28 06:35:07;;;;;;;8.65;2.83;;;7.10;99.90;;;;;;5087720;28;20076;-73
2021/03/28 06:37:54;;;;;;;6.25;2.67;;;7.30;99.90;;;;;;5087912;28;20377;-73
2021/03/28 06:40:39;;;;;;;5.43;2.72;;;7.40;99.90;;;;;;5087772;28;20055;-73
2021/03/28 06:43:23;;;;;;;6.35;3.20;;;7.60;99.90;;;;;;5089542;28;20378;-73
2021/03/28 06:46:33;;;;;;;7.13;2.80;;;7.80;99.90;;;;;;5091759;28;20042;-73
2021/03/28 06:49:18;;;;;;;8.75;3.47;;;8.00;99.90;;;;;;5091621;28;20024;-74
2021/03/28 06:52:20;;;;;;;5.55;2.95;;;8.00;99.90;;;;;;5093118;28;20016;-73
2021/03/28 06:54:51;;;;;;;6.45;3.42;;;8.10;99.90;;;;;;5094466;28;20036;-74
2021/03/28 06:57:36;;;;;;;6.55;2.90;;;8.20;99.90;;;;;;5094119;28;20125;-73
2021/03/28 07:00:01;;;;;;;4.72;2.97;;;8.30;99.90;;;;;;5094741;28;20074;-74
2021/03/28 07:03:04;;;;;;;8.07;3.25;;;8.30;99.90;;;;;;5093922;28;20481;-73
2021/03/28 07:05:57;;;;;;;5.10;3.13;;;8.50;99.90;;;;;;5092907;28;20032;-74
2021/03/28 07:08:23;;;;;;;;;;;8.70;99.90;;;;;;5091772;28;20077;-75
2021/03/28 07:11:16;;;;;;;4.50;2.80;;;8.80;99.90;;;;;;5091038;28;19908;-74
2021/03/28 07:14:03;;;;;;;6.20;2.83;;;9.10;99.90;;;;;;5090948;28;20016;-74
2021/03/28 07:16:32;;;;;;;5.90;2.42;;;9.30;99.90;;;;;;5090653;28;20408;-74
2021/03/28 07:19:00;;;;;;;4.82;2.03;;;9.60;99.90;;;;;;5090776;28;20069;-73
2021/03/28 07:21:52;;;;;;;5.72;3.10;;;9.80;99.90;;;;;;5092335;28;20024;-74
2021/03/28 07:24:50;;;;;;;5.15;2.70;;;9.70;99.90;;;;;;5090714;28;20398;-74
2021/03/28 07:27:27;;;;;;;4.97;2.30;;;9.70;99.90;;;;;;5092276;28;20018;-74
2021/03/28 07:30:03;;;;;;;4.88;2.38;;;9.80;99.90;;;;;;5090836;28;20026;-74
2021/03/28 07:32:49;;;;;;;4.63;2.60;;;9.90;99.90;;;;;;5091926;28;20078;-72
2021/03/28 07:35:36;;;;;;;4.72;2.58;;;9.80;99.90;;;;;;5090631;28;20030;-74
2021/03/28 07:38:29;;;;;;;4.72;2.80;;;10.00;99.90;;;;;;5090520;28;20112;-74
2021/03/28 07:41:20;;;;;;;9.75;3.17;;;10.30;99.90;;;;;;5090570;28;20028;-74
2021/03/28 07:44:27;;;;;;;4.50;2.03;;;10.50;99.90;;;;;;5091934;28;20474;-74
2021/03/28 07:47:18;;;;;;;6.30;2.78;;;10.60;99.90;;;;;;5090286;28;20024;-74
2021/03/28 07:49:55;;;;;;;6.43;2.67;;;10.50;99.90;;;;;;5091809;28;20027;-73
2021/03/28 07:52:42;;;;;;;4.53;2.40;;;10.50;99.90;;;;;;5090178;28;20118;-73
2021/03/28 07:55:21;;;;;;;4.85;2.40;;;10.60;99.90;;;;;;5090214;28;20042;-73
2021/03/28 07:58:09;;;;;;;4.70;2.38;;;10.70;99.90;;;;;;5089374;28;20056;-73
2021/03/28 08:01:22;;;;;;;5.72;2.60;;;10.90;98.40;;;;;;5091459;28;20389;-74
2021/03/28 08:04:02;;;;;;;5.82;2.05;;;11.20;96.60;;;;;;5091536;28;20055;-74
2021/03/28 08:07:01;;;;;;;5.28;2.03;;;11.80;92.40;;;;;;5089958;28;20032;-75
2021/03/28 08:09:48;;;;;;;6.13;2.10;;;12.90;88.30;;;;;;5089931;28;20021;-74
2021/03/28 08:12:33;;;;;;;4.93;2.25;;;13.70;81.50;;;;;;5091118;28;20020;-74
2021/03/28 08:15:18;;;;;;;6.60;1.92;;;14.80;67.90;;;;;;5093804;28;20028;-75
2021/03/28 08:17:46;;;;;;;6.82;2.33;;;15.80;60.20;;;;;;5111270;28;20096;-74
2021/03/28 08:20:54;;;;;;;5.28;1.98;;;17.00;54.90;;;;;;5093039;28;20054;-74
2021/03/28 08:23:57;;;;;;;5.85;2.53;;;18.40;50.00;;;;;;5111016;28;20059;-75
2021/03/28 08:26:30;;;;;;;4.72;2.45;;;19.30;46.80;;;;;;5092789;28;20019;-74
2021/03/28 08:29:23;;;;;;;7.35;2.65;;;20.10;46.30;;;;;;5092963;28;20076;-74
2021/03/28 08:32:08;;;;;;;4.53;2.15;;;19.90;46.90;;;;;;5111127;28;20046;-74
2021/03/28 08:34:52;;;;;;;7.50;2.55;;;20.10;44.80;;;;;;5092809;28;20034;-74
2021/03/28 08:37:42;;;;;;;5.97;2.35;;;21.80;41.40;;;;;;5111171;28;20059;-75
2021/03/28 08:40:23;;;;;;;6.10;2.38;;;23.30;35.90;;;;;;5110871;28;20032;-74
2021/03/28 08:43:12;;;;;;;9.35;2.75;;;23.90;34.90;;;;;;5110772;28;20100;-74
2021/03/28 08:46:03;;;;;;;6.22;2.80;;;24.10;34.20;;;;;;5110738;28;20519;-74
2021/03/28 08:48:40;;;;;;;7.28;2.50;;;22.90;36.90;;;;;;5110753;28;20080;-74
2021/03/28 08:51:22;;;;;;;6.72;2.55;;;21.40;38.50;;;;;;5110801;28;20023;-74
2021/03/28 08:54:14;;;;;;;5.88;2.38;;;20.30;40.90;;;;;;5111254;28;20024;-75
2021/03/28 08:56:48;;;;;;;6.13;2.58;;;19.70;41.80;;;;;;5092677;28;20035;-74
2021/03/28 08:59:26;;;;;;;7.82;2.72;;;19.80;41.10;;;;;;5092534;28;20019;-76
2021/03/28 09:02:07;;;;;;;6.22;2.22;;;21.20;38.30;;;;;;5092520;28;20505;-76
2021/03/28 09:04:47;;;;;;;6.07;2.42;;;21.20;38.00;;;;;;5092375;28;20023;-75
2021/03/28 09:07:54;;;;;;;7.25;2.92;;;21.30;38.10;;;;;;5092148;28;20097;-74
2021/03/28 09:10:42;;;;;;;5.05;2.38;;;21.70;37.80;;;;;;5027831;28;20026;-73
2021/03/28 09:13:40;;;;;;;10.20;3.90;;;21.60;37.00;;;;;;5105991;28;20540;-71
2021/03/28 09:16:44;;;;;;;9.32;2.70;;;22.40;36.60;;;;;;5092026;28;20095;-74
2021/03/28 09:19:36;;;;;;;6.35;1.67;;;23.80;33.70;;;;;;5110126;28;20028;-73
2021/03/28 09:22:23;;;;;;;5.50;2.08;;;24.70;32.30;;;;;;5111068;28;20020;-74
2021/03/28 09:24:58;;;;;;;6.22;2.13;;;25.30;31.40;;;;;;5092262;28;20081;-75
2021/03/28 09:27:33;;;;;;;5.43;2.25;;;26.40;30.10;;;;;;5110619;28;20030;-74
2021/03/28 09:30:16;;;;;;;7.00;2.45;;;26.40;29.50;;;;;;5110214;28;20027;-74
2021/03/28 09:32:50;;;;;;;5.03;2.10;;;25.20;30.40;;;;;;5110774;28;20024;-75
2021/03/28 09:35:46;;;;;;;9.18;2.60;;;24.90;31.80;;;;;;5110151;28;20024;-74
2021/03/28 09:38:33;;;;;;;6.95;2.50;;;24.70;32.20;;;;;;5091941;28;20026;-74
2021/03/28 09:41:16;;;;;;;5.43;2.15;;;24.90;32.80;;;;;;5110099;28;20077;-75
2021/03/28 09:44:00;;;;;;;;;;;25.80;31.60;;;;;;5110890;28;20071;-75
2021/03/28 09:47:01;;;;;;;5.28;1.73;;;26.70;28.40;;;;;;5110108;28;19976;-74
2021/03/28 09:49:39;;;;;;;6.45;2.10;;;26.90;27.80;;;;;;5110613;28;20077;-74
2021/03/28 09:52:23;;;;;;;6.88;2.40;;;26.70;27.40;;;;;;5110031;28;20023;-75
2021/03/28 09:55:26;;;;;;;5.75;1.90;;;27.10;28.40;;;;;;5109934;28;20447;-75
2021/03/28 09:58:12;;;;;;;3.97;1.70;;;26.90;26.10;;;;;;5091625;28;20028;-74
2021/03/28 10:00:47;;;;;;;5.30;1.98;;;28.20;26.20;;;;;;5109801;28;20062;-74
2021/03/28 10:03:17;;;;;;;4.28;1.90;;;28.90;26.00;;;;;;5109570;28;20062;-75
2021/03/28 10:05:44;;;;;;;5.22;2.28;;;30.90;24.20;;;;;;5109907;28;20023;-75
2021/03/28 10:08:18;;;;;;;4.40;1.95;;;32.40;23.10;;;;;;5109592;28;20053;-74
2021/03/28 10:11:05;;;;;;;5.57;2.35;;;31.40;22.70;;;;;;5091344;28;20068;-75
2021/03/28 10:13:58;;;;;;;5.10;1.70;;;29.80;23.40;;;;;;5091317;28;20030;-75
2021/03/28 10:16:30;;;;;;;6.03;2.60;;;28.20;24.70;;;;;;5109403;28;20059;-75
2021/03/28 10:19:45;;;;;;;4.70;2.20;;;28.10;24.30;;;;;;5091419;28;20032;-75
2021/03/28 10:22:23;;;;;;;3.15;1.27;;;29.70;23.00;;;;;;5061039;28;20028;-75
2021/03/28 10:25:08;;;;;;;3.85;1.50;;;30.90;22.60;;;;;;5096019;28;20035;-76
2021/03/28 10:28:41;;;;;;;4.35;1.67;;;32.80;21.30;;;;;;5095173;28;20461;-75
2021/03/28 10:31:16;;;;;;;6.22;2.00;;;32.80;20.70;;;;;;5041699;28;20048;-75
2021/03/28 10:33:51;;;;;;;4.45;1.85;;;34.00;20.30;;;;;;5089300;28;20027;-75
2021/03/28 10:36:43;;;;;;;4.07;1.42;;;32.70;20.50;;;;;;5113233;28;20016;-74
2021/03/28 10:39:20;;;;;;;3.67;1.88;;;30.30;22.70;;;;;;5094976;28;20054;-75
2021/03/28 10:42:04;;;;;;;6.25;2.03;;;29.60;22.70;;;;;;5095667;28;20027;-75
2021/03/28 10:45:14;;;;;;;5.15;1.92;;;28.40;23.70;;;;;;5094925;28;20077;-74
2021/03/28 10:48:01;;;;;;;7.78;2.00;;;26.40;25.60;;;;;;5030673;28;20123;-74
2021/03/28 10:50:54;;;;;;;8.93;2.03;;;24.90;27.40;;;;;;5095017;28;20047;-74
2021/03/28 10:53:39;;;;;;;;;;;23.60;28.40;;;;;;5095649;28;20072;-75
2021/03/28 10:56:23;;;;;;;6.05;2.30;;;21.80;30.30;;;;;;5095346;28;19946;-74
2021/03/28 10:59:17;;;;;;;4.35;1.98;;;21.40;31.90;;;;;;5094977;28;20388;-74
2021/03/28 11:02:04;;;;;;;5.53;2.08;;;22.40;30.10;;;;;;5094940;28;20027;-75
2021/03/28 11:04:53;;;;;;;6.60;2.45;;;25.40;28.60;;;;;;5095105;28;20027;-74
2021/03/28 11:07:51;;;;;;;5.72;2.90;;;26.60;26.90;;;;;;5095702;28;20499;-75
2021/03/28 11:10:58;;;;;;;4.63;2.33;;;23.90;28.40;;;;;;5096243;28;20034;-74
2021/03/28 11:13:41;;;;;;;6.47;1.80;;;22.40;32.10;;;;;;5032519;28;20033;-75
2021/03/28 11:16:54;;;;;;;6.47;2.25;;;21.60;32.60;;;;;;5070108;22;20065;-73
2021/03/28 11:19:59;;;;;;;3.40;1.73;;;21.50;33.00;;;;;;5090984;28;20048;-73
2021/03/28 11:22:43;;;;;;;6.90;2.60;;;20.90;34.80;;;;;;5090956;28;20024;-73
2021/03/28 11:25:23;;;;;;;4.95;2.28;;;20.10;36.00;;;;;;5090619;28;20016;-73
2021/03/28 11:27:54;;;;;;;5.00;2.05;;;19.90;36.30;;;;;;5107784;28;20157;-73
2021/03/28 11:30:51;;;;;;;6.93;2.00;;;20.10;35.70;;;;;;5107536;28;20074;-73
2021/03/28 11:33:24;;;;;;;6.88;1.88;;;20.00;35.90;;;;;;5089740;28;20123;-73
2021/03/28 11:35:56;;;;;;;6.63;1.80;;;20.20;36.20;;;;;;5090434;28;20080;-74
2021/03/28 11:38:22;;;;;;;5.13;1.90;;;21.60;34.70;;;;;;5107674;28;20028;-73
2021/03/28 11:41:13;;;;;;;4.97;1.70;;;22.10;32.40;;;;;;5107394;28;20028;-73
2021/03/28 11:43:45;;;;;;;4.90;1.90;;;22.90;32.00;;;;;;5090502;28;20032;-73
2021/03/28 11:46:24;;;;;;;5.20;1.90;;;23.30;30.80;;;;;;5107432;28;20016;-74
2021/03/28 11:48:53;;;;;;;6.18;2.25;;;24.10;30.80;;;;;;5090373;28;20020;-74
2021/03/28 11:51:18;;;;;;;6.10;2.05;;;25.60;29.50;;;;;;5107649;28;20051;-74
2021/03/28 11:53:47;;;;;;;6.45;2.25;;;27.70;27.50;;;;;;5107542;28;20409;-74
2021/03/28 11:56:54;;;;;;;5.30;2.05;;;29.60;24.80;;;;;;5090394;28;20050;-74
2021/03/28 11:59:22;;;;;;;5.22;2.08;;;31.40;24.20;;;;;;5090080;28;20028;-74
2021/03/28 12:01:58;;;;;;;4.65;1.98;;;33.70;22.30;;;;;;5106941;28;20144;-74
2021/03/28 12:04:24;;;;;;;5.82;1.83;;;34.10;21.90;;;;;;5106994;28;20020;-74
2021/03/28 12:07:13;;;;;;;3.38;2.08;;;35.00;21.30;;;;;;5107258;28;20020;-75
2021/03/28 12:09:41;;;;;;;5.82;2.08;;;36.60;20.10;;;;;;5090065;28;20023;-73
2021/03/28 12:12:33;;;;;;;4.32;2.03;;;37.70;19.20;;;;;;5090042;28;20020;-73
2021/03/28 12:15:36;;;;;;;4.38;1.63;;;37.80;18.60;;;;;;5074225;28;20031;-73
2021/03/28 12:18:21;;;;;;;6.25;2.00;;;38.10;18.20;;;;;;5090246;28;20055;-72
2021/03/28 12:21:07;;;;;;;5.65;2.00;;;36.50;18.90;;;;;;5107026;28;20031;-74
2021/03/28 12:23:48;;;;;;;3.83;2.00;;;37.20;19.10;;;;;;5089714;28;20384;-73
2021/03/28 12:26:19;;;;;;;3.80;1.60;;;37.90;18.50;;;;;;5106606;28;20016;-73
2021/03/28 12:28:45;;;;;;;5.90;1.83;;;39.50;18.10;;;;;;5089528;28;20027;-72
2021/03/28 12:31:32;;;;;;;3.60;1.73;;;38.90;17.80;;;;;;5106575;28;20107;-73
2021/03/28 12:34:15;;;;;;;6.43;1.88;;;38.00;17.80;;;;;;5106570;28;20032;-73
2021/03/28 12:36:53;;;;;;;3.78;1.83;;;37.50;18.20;;;;;;5089691;28;20119;-74
2021/03/28 12:39:29;;;;;;;4.15;2.08;;;36.10;19.10;;;;;;5106372;28;20428;-73
2021/03/28 12:42:04;;;;;;;3.63;1.58;;;37.30;19.30;;;;;;5088922;28;20027;-73
2021/03/28 12:44:31;;;;;;;4.45;2.28;;;37.90;18.80;;;;;;5106511;28;20137;-73
2021/03/28 12:46:58;;;;;;;4.53;2.65;;;38.00;18.10;;;;;;5089369;28;20051;-74
2021/03/28 12:49:34;;;;;;;3.30;1.38;;;37.40;18.30;;;;;;5089725;28;20035;-73
2021/03/28 12:52:12;;;;;;;4.40;1.60;;;36.70;19.00;;;;;;5090432;28;20051;-73
2021/03/28 12:55:01;;;;;;;4.50;2.15;;;38.00;19.00;;;;;;5106327;28;20089;-73
2021/03/28 12:57:41;;;;;;;3.33;1.50;;;38.90;18.10;;;;;;5089089;28;20024;-72
2021/03/28 13:00:19;;;;;;;4.05;1.85;;;40.30;17.60;;;;;;5089105;28;20108;-73
2021/03/28 13:02:47;;;;;;;3.20;1.80;;;40.40;17.30;;;;;;5105779;28;20035;-73
2021/03/28 13:05:12;;;;;;;4.80;1.75;;;39.00;17.60;;;;;;5088795;28;20030;-73
2021/03/28 13:07:44;;;;;;;4.00;1.60;;;37.60;18.40;;;;;;5106061;28;20471;-74
2021/03/28 13:10:25;;;;;;;;;;;36.20;19.00;;;;;;5089316;28;20028;-72
2021/03/28 13:13:15;;;;;;;3.42;1.70;;;36.10;18.70;;;;;;5088642;28;20025;-72
2021/03/28 13:15:48;;;;;;;4.68;1.85;;;36.50;19.70;;;;;;5089576;28;20024;-73
2021/03/28 13:18:19;;;;;;;4.65;1.58;;;38.20;18.80;;;;;;5088521;28;20024;-73
2021/03/28 13:20:48;;;;;;;4.90;1.98;;;38.70;17.90;;;;;;5105514;28;20031;-72
2021/03/28 13:23:36;;;;;;;4.22;1.80;;;38.60;18.00;;;;;;5105534;28;20028;-73
2021/03/28 13:26:18;;;;;;;3.85;1.85;;;38.60;18.00;;;;;;5088361;28;20027;-73
2021/03/28 13:29:11;;;;;;;4.22;2.15;;;39.20;18.40;;;;;;5088439;28;20032;-73
2021/03/28 13:31:58;;;;;;;4.03;1.58;;;39.40;17.50;;;;;;5088398;28;20058;-73
2021/03/28 13:34:27;;;;;;;4.05;1.60;;;39.50;17.50;;;;;;5088414;28;20020;-73
2021/03/28 13:37:16;;;;;;;2.35;1.38;;;38.40;18.00;;;;;;5105501;28;20051;-73
2021/03/28 13:39:59;;;;;;;3.88;1.98;;;39.00;18.00;;;;;;5105189;28;20449;-73
2021/03/28 13:42:29;;;;;;;3.88;1.55;;;38.70;17.30;;;;;;5088467;28;20024;-72
2021/03/28 13:44:59;;;;;;;3.28;1.40;;;38.60;18.00;;;;;;5088548;28;20035;-73
2021/03/28 13:47:39;;;;;;;3.42;1.50;;;38.10;18.80;;;;;;5088409;28;20021;-73
2021/03/28 13:50:25;;;;;;;3.65;1.60;;;37.20;18.70;;;;;;5105966;28;20024;-73
2021/03/28 13:52:51;;;;;;;4.70;2.00;;;36.90;18.70;;;;;;5105859;28;20028;-73
2021/03/28 13:55:38;;;;;;;4.05;1.80;;;36.40;18.90;;;;;;5087157;28;20024;-73
2021/03/28 13:58:20;;;;;;;4.22;1.70;;;36.50;19.90;;;;;;5088313;28;20440;-73
2021/03/28 14:00:50;;;;;;;3.40;1.83;;;36.20;18.90;;;;;;5088355;28;20450;-72
2021/03/28 14:03:36;;;;;;;2.67;1.30;;;36.90;19.20;;;;;;5088255;28;20025;-73
2021/03/28 14:06:37;;;;;;;4.05;2.13;;;36.80;18.70;;;;;;5088146;28;20029;-73
2021/03/28 14:09:03;;;;;;;3.95;1.75;;;36.20;19.20;;;;;;5083732;28;20119;-73
2021/03/28 14:11:50;;;;;;;4.38;1.90;;;35.90;19.80;;;;;;5105032;28;20044;-73
2021/03/28 14:14:22;;;;;;;4.88;1.83;;;36.50;19.40;;;;;;5088056;28;20037;-73
2021/03/28 14:16:50;;;;;;;5.85;1.65;;;37.40;19.30;;;;;;5104850;28;20035;-73
2021/03/28 14:19:27;;;;;;;3.10;1.50;;;38.00;18.80;;;;;;5088914;28;20057;-73
2021/03/28 14:21:53;;;;;;;4.03;1.73;;;38.10;18.60;;;;;;5089046;28;20093;-73